01/24 04:00 XV

2,000ft‚ɉ_‚ª­‚µ
‰_‚ªŽUÝ

’nã•—: 240‹3kt
(190‹` 280‹‚Å•Ï“®)

ã‹ó•—
13,000ft: –¢Œv‘ª
10,000ft: 270‹43kt
 7,000ft: 270‹32kt
 3,000ft: 270‹28kt

’nãF 0Ž
ã‹óF -23.9Ž

“ú–vF 17:00

ŽÀ‹µ“V‹C}


—\‘z“V‹C}


RJTJ 231900Z 24003KT 190V280 9999 FEW020 SCT/// M00/M11 Q1006 RMK 1CU020 A2972=

GPV‹CÛ—\•ñ
‹CÛ’¡
“ú–{‹CÛ‹¦‰ï

‹Ê—„ƒ_ƒ€•ú—¬—Ê(1,000m3/s‚ð’´‚¦‚½7ŽžŠÔŒã‚ÉDZŠ¥…)
‘¾˜Y‰q–å‹´ƒeƒŒƒ[ƒ^…ˆÊ(11m‚ÅDZŠ¥…)

skydive.jp